Time;durP1;ratioP1;P1;durP2;ratioP2;P2;SDS_P1;SDS_P2;PMS_P1;PMS_P2;Temp;Humidity;BMP_temperature;BMP_pressure;BME280_temperature;BME280_humidity;BME280_pressure;Samples;Min_cycle;Max_cycle;Signal;HPM_P1;HPM_P2
2022/03/25 00:01:51;;;;;;;14.65;9.50;;;;;;;;;;6222311;28;20107;-66
2022/03/25 00:04:52;;;;;;;15.20;9.23;;;;;;;;;;6222507;28;20042;-66
2022/03/25 00:07:54;;;;;;;19.15;10.75;;;;;;;;;;6223306;28;20046;-67
2022/03/25 00:10:56;;;;;;;15.35;10.32;;;;;;;;;;6224279;28;20173;-66
2022/03/25 00:13:58;;;;;;;16.95;11.23;;;;;;;;;;6222860;28;20410;-66
2022/03/25 00:17:00;;;;;;;19.88;10.93;;;;;;;;;;6221493;28;20125;-66
2022/03/25 00:20:02;;;;;;;16.95;10.50;;;;;;;;;;6221296;28;20056;-68
2022/03/25 00:23:03;;;;;;;20.08;10.63;;;;;;;;;;6222189;28;20504;-69
2022/03/25 00:26:05;;;;;;;18.63;9.80;;;;;;;;;;6222240;28;21811;-68
2022/03/25 00:29:08;;;;;;;21.35;10.95;;;;;;;;;;6221470;28;20107;-69
2022/03/25 00:32:09;;;;;;;16.63;11.32;;;;;;;;;;6219139;28;20128;-68
2022/03/25 00:35:11;;;;;;;21.02;11.32;;;;;;;;;;6221239;28;20056;-68
2022/03/25 00:38:13;;;;;;;18.60;11.63;;;;;;;;;;6219658;28;20046;-68
2022/03/25 00:41:16;;;;;;;18.40;10.90;;;;;;;;;;6220352;28;20524;-68
2022/03/25 00:44:19;;;;;;;14.85;10.88;;;;;;;;;;6220327;28;20057;-69
2022/03/25 00:47:21;;;;;;;25.60;11.00;;;;;;;;;;6220403;28;20054;-69
2022/03/25 00:50:23;;;;;;;20.33;10.32;;;;;;;;;;6219964;28;20142;-68
2022/03/25 00:53:25;;;;;;;19.35;11.35;;;;;;;;;;6220458;28;20129;-69
2022/03/25 00:56:26;;;;;;;20.02;10.93;;;;;;;;;;6219882;28;20033;-68
2022/03/25 00:59:29;;;;;;;20.02;12.07;;;;;;;;;;6220299;28;20158;-68
2022/03/25 01:02:31;;;;;;;17.63;11.27;;;;;;;;;;6220342;28;20208;-69
2022/03/25 01:05:32;;;;;;;21.00;11.98;;;;;;;;;;6220621;28;20501;-69
2022/03/25 01:08:35;;;;;;;19.83;12.20;;;;;;;;;;6220120;28;20037;-68
2022/03/25 01:11:36;;;;;;;18.60;11.88;;;;;;;;;;6220251;28;20057;-69
2022/03/25 01:14:40;;;;;;;20.92;12.40;;;;;;;;;;6219866;28;20775;-68
2022/03/25 01:17:41;;;;;;;21.45;11.13;;;;;;;;;;6220116;28;20559;-68
2022/03/25 01:20:43;;;;;;;20.58;11.65;;;;;;;;;;6220468;28;20620;-67
2022/03/25 01:23:44;;;;;;;17.83;11.55;;;;;;;;;;6221293;28;20046;-69
2022/03/25 01:26:46;;;;;;;16.23;11.10;;;;;;;;;;6220879;28;20046;-68
2022/03/25 01:29:49;;;;;;;19.70;11.73;;;;;;;;;;6219413;28;20107;-68
2022/03/25 01:32:51;;;;;;;21.77;12.40;;;;;;;;;;6220089;28;20152;-67
2022/03/25 01:35:52;;;;;;;16.95;11.05;;;;;;;;;;6218010;28;20494;-67
2022/03/25 01:38:54;;;;;;;26.42;11.38;;;;;;;;;;6221048;28;20107;-68
2022/03/25 01:41:55;;;;;;;18.45;11.45;;;;;;;;;;6227085;28;20405;-68
2022/03/25 01:44:58;;;;;;;21.00;11.93;;;;;;;;;;6227025;28;20060;-67
2022/03/25 01:48:00;;;;;;;19.45;11.18;;;;;;;;;;6227674;28;20050;-68
2022/03/25 01:51:02;;;;;;;18.05;11.82;;;;;;;;;;6228796;28;20136;-67
2022/03/25 01:54:04;;;;;;;20.00;12.23;;;;;;;;;;6228222;28;20191;-67
2022/03/25 01:57:09;;;;;;;18.52;11.23;;;;;;;;;;6228395;28;20115;-67
2022/03/25 02:00:13;;;;;;;;;;;;;;;;;;6227644;28;20046;-67
2022/03/25 02:03:16;;;;;;;;;;;;;;;;;;6224695;28;19921;-67
2022/03/25 02:06:18;;;;;;;18.70;11.93;;;;;;;;;;6227948;28;19929;-67
2022/03/25 02:09:19;;;;;;;22.70;12.15;;;;;;;;;;6224960;28;20121;-67
2022/03/25 02:12:21;;;;;;;15.98;11.68;;;;;;;;;;6226258;28;20046;-67
2022/03/25 02:15:33;;;;;;;20.10;12.13;;;;;;;;;;6226338;28;20092;-67
2022/03/25 02:18:35;;;;;;;21.08;13.43;;;;;;;;;;6226212;28;20042;-67
2022/03/25 02:21:39;;;;;;;20.17;12.85;;;;;;;;;;6225861;28;20148;-66
2022/03/25 02:24:41;;;;;;;18.90;12.32;;;;;;;;;;6226731;28;20125;-67
2022/03/25 02:27:43;;;;;;;21.98;12.43;;;;;;;;;;6226687;28;20061;-67
2022/03/25 02:30:45;;;;;;;23.02;13.23;;;;;;;;;;6226616;28;20498;-67
2022/03/25 02:33:47;;;;;;;19.83;13.45;;;;;;;;;;6226322;28;20104;-67
2022/03/25 02:36:50;;;;;;;22.20;13.13;;;;;;;;;;6223020;28;20048;-67
2022/03/25 02:39:52;;;;;;;20.10;12.45;;;;;;;;;;6226444;28;20061;-67
2022/03/25 02:42:54;;;;;;;22.40;13.00;;;;;;;;;;6226806;28;20060;-67
2022/03/25 02:45:55;;;;;;;22.98;12.50;;;;;;;;;;6223715;28;20468;-68
2022/03/25 02:48:57;;;;;;;20.67;12.98;;;;;;;;;;6229394;28;20128;-67
2022/03/25 02:52:00;;;;;;;22.80;13.15;;;;;;;;;;6225069;28;20053;-67
2022/03/25 02:55:02;;;;;;;18.88;12.52;;;;;;;;;;6222828;28;20124;-67
2022/03/25 02:58:03;;;;;;;20.10;13.50;;;;;;;;;;6219304;28;20050;-67
2022/03/25 03:01:06;;;;;;;23.30;13.48;;;;;;;;;;6224688;28;20049;-67
2022/03/25 03:04:09;;;;;;;19.25;12.57;;;;;;;;;;6224469;28;20429;-67
2022/03/25 03:07:12;;;;;;;21.85;12.88;;;;;;;;;;6226220;28;20062;-67
2022/03/25 03:10:14;;;;;;;21.50;12.63;;;;;;;;;;6222349;28;20521;-67
2022/03/25 03:13:15;;;;;;;21.38;12.23;;;;;;;;;;6226397;28;20100;-67
2022/03/25 03:16:17;;;;;;;20.92;13.05;;;;;;;;;;6222627;28;20128;-67
2022/03/25 03:19:18;;;;;;;22.75;13.15;;;;;;;;;;6223055;28;20176;-68
2022/03/25 03:22:22;;;;;;;21.73;13.35;;;;;;;;;;6222149;28;20044;-68
2022/03/25 03:25:25;;;;;;;21.23;12.98;;;;;;;;;;6222865;28;20597;-67
2022/03/25 03:28:27;;;;;;;19.15;13.00;;;;;;;;;;6219558;28;20053;-67
2022/03/25 03:31:29;;;;;;;23.85;13.05;;;;;;;;;;6223923;28;20060;-67
2022/03/25 03:34:31;;;;;;;20.90;12.23;;;;;;;;;;6223603;28;20050;-67
2022/03/25 03:37:40;;;;;;;21.55;12.05;;;;;;;;;;6223746;28;20048;-67
2022/03/25 03:40:41;;;;;;;18.70;12.43;;;;;;;;;;6222574;28;20072;-67
2022/03/25 03:43:43;;;;;;;20.42;12.77;;;;;;;;;;6221264;28;20103;-67
2022/03/25 03:46:44;;;;;;;22.58;13.15;;;;;;;;;;6219007;28;20064;-67
2022/03/25 03:49:46;;;;;;;23.73;12.75;;;;;;;;;;6221958;28;20042;-68
2022/03/25 03:52:49;;;;;;;20.95;12.68;;;;;;;;;;6222275;28;20042;-68
2022/03/25 03:55:51;;;;;;;21.77;13.23;;;;;;;;;;6221766;28;20418;-68
2022/03/25 03:58:53;;;;;;;24.73;13.20;;;;;;;;;;6222924;28;20140;-67
2022/03/25 04:01:55;;;;;;;21.13;13.07;;;;;;;;;;6221425;28;20046;-67
2022/03/25 04:04:57;;;;;;;21.17;12.82;;;;;;;;;;6221094;28;20046;-67
2022/03/25 04:08:00;;;;;;;25.25;12.98;;;;;;;;;;6222615;28;20061;-67
2022/03/25 04:11:02;;;;;;;24.20;13.57;;;;;;;;;;6222606;28;20068;-67
2022/03/25 04:14:04;;;;;;;23.20;12.48;;;;;;;;;;6219847;28;20065;-67
2022/03/25 04:17:06;;;;;;;21.05;13.35;;;;;;;;;;6221791;28;20077;-67
2022/03/25 04:20:09;;;;;;;22.38;12.45;;;;;;;;;;6221059;28;20051;-67
2022/03/25 04:23:12;;;;;;;25.02;12.27;;;;;;;;;;6221187;28;20084;-68
2022/03/25 04:26:14;;;;;;;20.17;12.73;;;;;;;;;;6220780;28;20650;-68
2022/03/25 04:29:15;;;;;;;20.83;12.50;;;;;;;;;;6222034;28;20129;-67
2022/03/25 04:32:17;;;;;;;24.25;12.82;;;;;;;;;;6220504;28;20509;-68
2022/03/25 04:35:19;;;;;;;24.00;11.85;;;;;;;;;;6219773;28;20129;-67
2022/03/25 04:38:22;;;;;;;19.77;11.70;;;;;;;;;;6219559;28;20042;-68
2022/03/25 04:41:25;;;;;;;21.38;12.35;;;;;;;;;;6220415;28;20163;-67
2022/03/25 04:44:27;;;;;;;20.87;12.77;;;;;;;;;;6220297;28;20046;-67
2022/03/25 04:47:28;;;;;;;23.45;11.73;;;;;;;;;;6220339;28;20136;-67
2022/03/25 04:50:30;;;;;;;25.08;12.30;;;;;;;;;;6219780;28;20056;-68
2022/03/25 04:53:34;;;;;;;17.95;11.07;;;;;;;;;;6220205;28;20042;-67
2022/03/25 04:56:36;;;;;;;25.45;12.50;;;;;;;;;;6219782;28;20506;-67
2022/03/25 04:59:37;;;;;;;24.60;12.43;;;;;;;;;;6220667;28;20397;-67
2022/03/25 05:02:39;;;;;;;20.42;12.88;;;;;;;;;;6218824;28;20038;-67
2022/03/25 05:05:42;;;;;;;25.95;12.95;;;;;;;;;;6219821;28;20049;-67
2022/03/25 05:08:45;;;;;;;23.35;12.45;;;;;;;;;;6220435;28;20073;-68
2022/03/25 05:11:46;;;;;;;32.78;13.25;;;;;;;;;;6221306;28;20058;-67
2022/03/25 05:14:48;;;;;;;28.20;12.85;;;;;;;;;;6220966;28;20103;-67
2022/03/25 05:17:51;;;;;;;36.00;13.98;;;;;;;;;;6220825;28;20062;-68
2022/03/25 05:20:54;;;;;;;32.28;13.57;;;;;;;;;;6219866;28;20561;-67
2022/03/25 05:23:56;;;;;;;28.67;13.68;;;;;;;;;;6219492;28;20053;-67
2022/03/25 05:26:59;;;;;;;29.70;13.70;;;;;;;;;;6219892;28;20081;-67
2022/03/25 05:30:00;;;;;;;28.45;13.20;;;;;;;;;;6218980;28;20050;-67
2022/03/25 05:33:03;;;;;;;31.73;13.57;;;;;;;;;;6219732;28;20050;-67
2022/03/25 05:36:05;;;;;;;34.72;13.23;;;;;;;;;;6219647;28;20592;-67
2022/03/25 05:39:08;;;;;;;29.52;13.68;;;;;;;;;;6220258;28;20045;-67
2022/03/25 05:42:10;;;;;;;30.52;13.10;;;;;;;;;;6215689;28;20053;-67
2022/03/25 05:45:12;;;;;;;26.55;13.95;;;;;;;;;;6219612;28;20054;-67
2022/03/25 05:48:13;;;;;;;32.95;13.20;;;;;;;;;;6219534;28;20053;-67
2022/03/25 05:51:15;;;;;;;34.72;14.02;;;;;;;;;;6220088;28;20112;-67
2022/03/25 05:54:18;;;;;;;28.60;14.13;;;;;;;;;;6218968;28;20041;-67
2022/03/25 05:57:20;;;;;;;28.50;13.52;;;;;;;;;;6219584;28;20517;-67
2022/03/25 06:00:21;;;;;;;25.65;13.43;;;;;;;;;;6219112;28;20052;-67
2022/03/25 06:03:23;;;;;;;24.13;14.45;;;;;;;;;;6220229;28;20149;-67
2022/03/25 06:06:25;;;;;;;25.35;14.10;;;;;;;;;;6220678;28;20053;-68
2022/03/25 06:09:28;;;;;;;28.30;14.05;;;;;;;;;;6220640;28;20144;-68
2022/03/25 06:12:30;;;;;;;20.52;12.90;;;;;;;;;;6219746;28;20132;-68
2022/03/25 06:15:31;;;;;;;27.50;14.15;;;;;;;;;;6221289;28;20136;-68
2022/03/25 06:18:33;;;;;;;21.75;13.77;;;;;;;;;;6208887;28;20054;-68
2022/03/25 06:21:35;;;;;;;26.85;14.43;;;;;;;;;;6219058;28;20485;-68
2022/03/25 06:24:38;;;;;;;24.38;14.55;;;;;;;;;;6218860;28;20053;-65
2022/03/25 06:27:47;;;;;;;26.02;14.98;;;;;;;;;;6223558;28;20136;-66
2022/03/25 06:30:48;;;;;;;28.15;15.68;;;;;;;;;;6221273;28;20042;-66
2022/03/25 06:33:50;;;;;;;26.38;14.73;;;;;;;;;;6223478;28;20054;-66
2022/03/25 06:36:51;;;;;;;26.83;14.93;;;;;;;;;;6222603;28;20069;-69
2022/03/25 06:39:54;;;;;;;30.40;16.17;;;;;;;;;;6225251;28;20180;-67
2022/03/25 06:42:57;;;;;;;31.77;15.68;;;;;;;;;;6226044;28;20088;-68
2022/03/25 06:45:58;;;;;;;31.00;16.17;;;;;;;;;;6223728;28;20430;-68
2022/03/25 06:49:00;;;;;;;27.83;16.20;;;;;;;;;;6225283;28;20454;-68
2022/03/25 06:52:02;;;;;;;29.48;16.15;;;;;;;;;;6224203;28;20553;-68
2022/03/25 06:55:07;;;;;;;39.20;18.08;;;;;;;;;;6223922;28;20133;-68
2022/03/25 06:58:09;;;;;;;26.63;16.25;;;;;;;;;;6223705;28;20456;-68
2022/03/25 07:01:12;;;;;;;32.90;16.98;;;;;;;;;;6223713;28;20050;-68
2022/03/25 07:04:14;;;;;;;32.63;16.48;;;;;;;;;;6222909;28;20054;-68
2022/03/25 07:07:21;;;;;;;28.35;16.00;;;;;;;;;;6221543;28;20094;-69
2022/03/25 07:10:26;;;;;;;25.80;15.73;;;;;;;;;;6226608;28;20046;-68
2022/03/25 07:13:28;;;;;;;25.80;16.05;;;;;;;;;;6227530;28;20056;-68
2022/03/25 07:16:29;;;;;;;23.90;15.18;;;;;;;;;;6220150;28;20076;-68
2022/03/25 07:19:31;;;;;;;29.42;17.13;;;;;;;;;;6220664;28;20501;-68
2022/03/25 07:22:33;;;;;;;26.20;16.13;;;;;;;;;;6220874;28;20187;-68
2022/03/25 07:25:37;;;;;;;29.42;16.67;;;;;;;;;;6221221;28;20042;-68
2022/03/25 07:28:38;;;;;;;23.38;16.02;;;;;;;;;;6218863;28;20038;-68
2022/03/25 07:31:40;;;;;;;28.38;16.70;;;;;;;;;;6221059;28;20667;-68
2022/03/25 07:34:42;;;;;;;25.08;17.23;;;;;;;;;;6220868;28;20080;-68
2022/03/25 07:37:44;;;;;;;29.80;17.20;;;;;;;;;;6220566;28;20054;-68
2022/03/25 07:40:47;;;;;;;29.15;17.75;;;;;;;;;;6220129;28;20101;-69
2022/03/25 07:43:49;;;;;;;31.15;17.40;;;;;;;;;;6222687;28;20053;-68
2022/03/25 07:46:51;;;;;;;30.02;18.02;;;;;;;;;;6221741;28;20053;-70
2022/03/25 07:49:52;;;;;;;29.73;17.88;;;;;;;;;;6223107;28;20054;-68
2022/03/25 07:52:54;;;;;;;31.35;18.38;;;;;;;;;;6223833;28;20073;-68
2022/03/25 07:55:57;;;;;;;30.77;18.40;;;;;;;;;;6220962;28;20046;-68
2022/03/25 07:58:59;;;;;;;30.93;18.43;;;;;;;;;;6223375;28;20096;-69
2022/03/25 08:02:00;;;;;;;30.05;19.42;;;;;;;;;;6219769;28;20049;-69
2022/03/25 08:05:02;;;;;;;26.13;17.88;;;;;;;;;;6223789;28;20135;-69
2022/03/25 08:08:04;;;;;;;32.00;17.92;;;;;;;;;;6221038;28;20452;-68
2022/03/25 08:11:08;;;;;;;27.83;17.17;;;;;;;;;;6222640;28;20502;-69
2022/03/25 08:14:10;;;;;;;27.05;17.77;;;;;;;;;;6221859;28;20046;-69
2022/03/25 08:17:12;;;;;;;27.00;18.38;;;;;;;;;;6222610;28;20129;-68
2022/03/25 08:20:13;;;;;;;25.38;18.27;;;;;;;;;;6220235;28;20494;-69
2022/03/25 08:27:48;;;;;;;29.58;19.50;;;;;;;;;;6220517;28;20051;-69
2022/03/25 08:30:12;;;;;;;32.35;19.90;;;;;;;;;;6127327;29;20083;-69
2022/03/25 08:33:14;;;;;;;28.10;20.02;;;;;;;;;;6222241;28;20068;-69
2022/03/25 08:36:17;;;;;;;28.58;19.45;;;;;;;;;;6222662;28;20068;-67
2022/03/25 08:39:18;;;;;;;31.90;19.40;;;;;;;;;;6221694;28;20582;-67
2022/03/25 08:42:21;;;;;;;34.22;17.70;;;;;;;;;;6219186;28;20046;-68
2022/03/25 08:45:23;;;;;;;32.25;16.90;;;;;;;;;;6223740;28;20096;-68
2022/03/25 08:48:25;;;;;;;24.30;16.77;;;;;;;;;;6219530;28;20050;-68
2022/03/25 08:51:27;;;;;;;24.63;16.13;;;;;;;;;;6220749;28;20050;-68
2022/03/25 08:54:29;;;;;;;22.13;16.02;;;;;;;;;;6220751;28;20081;-68
2022/03/25 08:57:32;;;;;;;19.60;14.52;;;;;;;;;;6222817;28;20099;-68
2022/03/25 09:00:33;;;;;;;30.00;15.57;;;;;;;;;;6219470;28;20128;-68
2022/03/25 09:03:35;;;;;;;26.95;16.05;;;;;;;;;;6221815;28;20148;-68
2022/03/25 09:06:36;;;;;;;18.80;13.63;;;;;;;;;;6220261;28;20405;-68
2022/03/25 09:09:38;;;;;;;16.88;12.07;;;;;;;;;;6220129;28;20518;-68
2022/03/25 09:12:42;;;;;;;19.10;12.65;;;;;;;;;;6221193;28;20131;-68
2022/03/25 09:15:43;;;;;;;15.35;11.48;;;;;;;;;;6222208;28;20089;-68
2022/03/25 09:18:45;;;;;;;18.65;11.55;;;;;;;;;;6219378;28;20160;-68
2022/03/25 09:21:46;;;;;;;18.52;12.50;;;;;;;;;;6219625;28;20049;-68
2022/03/25 09:24:48;;;;;;;15.93;11.23;;;;;;;;;;6220286;28;20091;-68
2022/03/25 09:27:51;;;;;;;17.42;11.65;;;;;;;;;;6222633;28;20049;-68
2022/03/25 09:30:53;;;;;;;15.40;11.85;;;;;;;;;;6217764;28;20177;-68
2022/03/25 09:35:08;;;;;;;16.13;11.00;;;;;;;;;;6219744;28;20065;-68
2022/03/25 09:37:16;;;;;;;13.55;10.77;;;;;;;;;;6220449;28;20054;-67
2022/03/25 09:40:20;;;;;;;16.10;10.70;;;;;;;;;;6219357;28;20124;-68
2022/03/25 09:43:23;;;;;;;12.75;9.82;;;;;;;;;;6219145;28;20050;-68
2022/03/25 09:46:25;;;;;;;11.00;9.23;;;;;;;;;;6220728;28;20072;-68
2022/03/25 09:49:27;;;;;;;13.95;9.75;;;;;;;;;;6222218;28;20493;-69
2022/03/25 09:52:31;;;;;;;11.25;9.20;;;;;;;;;;6221181;28;20092;-68
2022/03/25 09:55:33;;;;;;;13.15;9.30;;;;;;;;;;6219736;28;20057;-68
2022/03/25 09:58:37;;;;;;;14.05;8.70;;;;;;;;;;6220050;28;20120;-68
2022/03/25 10:01:38;;;;;;;13.27;9.38;;;;;;;;;;6222695;28;20119;-68
2022/03/25 10:04:41;;;;;;;12.18;8.75;;;;;;;;;;6226086;28;20127;-69
2022/03/25 10:07:47;;;;;;;11.52;8.68;;;;;;;;;;6226847;28;20413;-69
2022/03/25 10:10:49;;;;;;;11.88;8.63;;;;;;;;;;6225864;28;20050;-68
2022/03/25 10:14:14;;;;;;;10.93;8.85;;;;;;;;;;6224368;28;20077;-69
2022/03/25 10:17:15;;;;;;;11.48;8.70;;;;;;;;;;6224528;28;20056;-67
2022/03/25 10:20:18;;;;;;;10.02;8.55;;;;;;;;;;6223411;28;20434;-69
2022/03/25 10:23:20;;;;;;;13.18;8.40;;;;;;;;;;6223973;28;20077;-69
2022/03/25 10:26:35;;;;;;;15.15;8.73;;;;;;;;;;6223308;28;20057;-69
2022/03/25 10:29:38;;;;;;;11.45;8.30;;;;;;;;;;6222362;28;20060;-69
2022/03/25 10:32:40;;;;;;;;;;;;;;;;;;6223130;28;20050;-68
2022/03/25 10:36:02;;;;;;;11.68;8.77;;;;;;;;;;6223814;28;20023;-69
2022/03/25 10:39:06;;;;;;;11.60;9.27;;;;;;;;;;6223553;28;20301;-69
2022/03/25 10:42:08;;;;;;;13.57;9.73;;;;;;;;;;6223292;28;20140;-69
2022/03/25 10:45:25;;;;;;;;;;;;;;;;;;6223773;28;20053;-69
2022/03/25 10:48:28;;;;;;;11.38;8.48;;;;;;;;;;6221408;28;19943;-69
2022/03/25 10:51:30;;;;;;;10.05;8.98;;;;;;;;;;6224947;28;20100;-68
2022/03/25 10:54:31;;;;;;;9.93;8.80;;;;;;;;;;6223375;28;20374;-69
2022/03/25 10:57:47;;;;;;;12.95;8.88;;;;;;;;;;6224948;28;20133;-71
2022/03/25 11:00:49;;;;;;;12.73;9.02;;;;;;;;;;6224012;28;20057;-69
2022/03/25 11:03:53;;;;;;;14.18;10.15;;;;;;;;;;6224419;28;20469;-68
2022/03/25 11:06:56;;;;;;;13.88;9.32;;;;;;;;;;6223569;28;20144;-69
2022/03/25 11:10:00;;;;;;;13.82;9.68;;;;;;;;;;6224111;28;20054;-69
2022/03/25 11:13:03;;;;;;;15.98;9.90;;;;;;;;;;6222734;28;20049;-69
2022/03/25 11:16:07;;;;;;;10.50;9.40;;;;;;;;;;6223387;28;20219;-69
2022/03/25 11:19:11;;;;;;;13.02;10.30;;;;;;;;;;6222095;28;20046;-68
2022/03/25 11:22:14;;;;;;;10.63;9.38;;;;;;;;;;6223302;28;20077;-69
2022/03/25 11:25:17;;;;;;;;;;;;;;;;;;6224911;28;20533;-69
2022/03/25 11:28:19;;;;;;;;;;;;;;;;;;6222166;28;19925;-68
2022/03/25 11:31:20;;;;;;;30.10;10.10;;;;;;;;;;6222704;28;20229;-69
2022/03/25 11:34:26;;;;;;;14.17;9.43;;;;;;;;;;6223978;28;20100;-70
2022/03/25 11:37:29;;;;;;;26.02;10.43;;;;;;;;;;6224636;28;20093;-69
2022/03/25 11:40:31;;;;;;;12.25;9.93;;;;;;;;;;6225348;28;20069;-69
2022/03/25 11:43:33;;;;;;;12.77;9.98;;;;;;;;;;6222409;28;20068;-68
2022/03/25 11:46:35;;;;;;;18.43;10.80;;;;;;;;;;6221559;28;20046;-69
2022/03/25 11:49:38;;;;;;;19.17;10.65;;;;;;;;;;6224869;28;20054;-70
2022/03/25 11:52:40;;;;;;;21.67;10.85;;;;;;;;;;6223858;28;20045;-70
2022/03/25 11:55:55;;;;;;;15.97;10.90;;;;;;;;;;6221501;28;20057;-70
2022/03/25 11:59:01;;;;;;;15.43;10.27;;;;;;;;;;6218696;28;20796;-70
2022/03/25 12:02:26;;;;;;;15.85;10.10;;;;;;;;;;6221193;28;20050;-68
2022/03/25 12:05:38;;;;;;;12.45;9.35;;;;;;;;;;6219367;28;20168;-68
2022/03/25 12:08:40;;;;;;;14.23;9.32;;;;;;;;;;6219801;28;20505;-68
2022/03/25 12:11:50;;;;;;;9.55;8.45;;;;;;;;;;6221865;28;20082;-69
2022/03/25 12:15:13;;;;;;;20.88;8.93;;;;;;;;;;6220538;28;20394;-68
2022/03/25 12:18:40;;;;;;;17.17;9.82;;;;;;;;;;6217480;28;20065;-69
2022/03/25 12:21:46;;;;;;;25.08;9.73;;;;;;;;;;6219843;28;20042;-69
2022/03/25 12:24:48;;;;;;;59.08;11.57;;;;;;;;;;6221819;28;20165;-69
2022/03/25 12:27:53;;;;;;;19.88;10.45;;;;;;;;;;6223295;28;20128;-69
2022/03/25 12:30:55;;;;;;;15.95;9.40;;;;;;;;;;6220866;28;20042;-69
2022/03/25 12:33:58;;;;;;;18.83;9.50;;;;;;;;;;6217332;28;20058;-69
2022/03/25 12:37:03;;;;;;;12.68;8.85;;;;;;;;;;6220411;28;20049;-69
2022/03/25 12:40:12;;;;;;;13.07;9.73;;;;;;;;;;6217388;28;20561;-69
2022/03/25 12:43:13;;;;;;;18.13;10.63;;;;;;;;;;6219968;28;20049;-69
2022/03/25 12:46:16;;;;;;;13.95;10.50;;;;;;;;;;6220574;28;20477;-70
2022/03/25 12:49:18;;;;;;;14.07;9.55;;;;;;;;;;6219602;28;20045;-68
2022/03/25 12:52:24;;;;;;;14.25;9.20;;;;;;;;;;6218572;28;20132;-70
2022/03/25 12:55:26;;;;;;;17.90;10.05;;;;;;;;;;6220976;28;20118;-69
2022/03/25 12:58:28;;;;;;;;;;;;;;;;;;6218466;28;20465;-69
2022/03/25 13:01:29;;;;;;;11.35;9.80;;;;;;;;;;6221973;28;20624;-69
2022/03/25 13:04:31;;;;;;;11.90;8.13;;;;;;;;;;6221044;28;20133;-68
2022/03/25 13:07:34;;;;;;;10.80;8.90;;;;;;;;;;6220236;28;20398;-69
2022/03/25 13:10:36;;;;;;;9.18;8.20;;;;;;;;;;6219462;28;20041;-69
2022/03/25 13:13:39;;;;;;;10.88;9.32;;;;;;;;;;6220893;28;20136;-69
2022/03/25 13:16:46;;;;;;;10.32;8.38;;;;;;;;;;6220986;28;20042;-69
2022/03/25 13:19:55;;;;;;;14.57;9.82;;;;;;;;;;6218528;28;20155;-69
2022/03/25 13:23:02;;;;;;;10.20;8.20;;;;;;;;;;6218418;28;20046;-68
2022/03/25 13:26:05;;;;;;;12.45;9.35;;;;;;;;;;6219344;28;20070;-69
2022/03/25 13:29:08;;;;;;;10.90;9.40;;;;;;;;;;6220229;28;20200;-69
2022/03/25 13:32:11;;;;;;;13.77;9.35;;;;;;;;;;6217507;28;20489;-69
2022/03/25 13:35:15;;;;;;;9.70;8.70;;;;;;;;;;6210876;28;20054;-67
2022/03/25 13:38:19;;;;;;;12.55;8.65;;;;;;;;;;6217361;28;20045;-67
2022/03/25 13:41:22;;;;;;;13.52;8.88;;;;;;;;;;6219576;28;20535;-67
2022/03/25 13:44:25;;;;;;;13.05;9.00;;;;;;;;;;6220016;28;20489;-67
2022/03/25 13:47:26;;;;;;;;;;;;;;;;;;6222152;28;20104;-67
2022/03/25 13:50:28;;;;;;;10.98;9.02;;;;;;;;;;6219568;28;19996;-68
2022/03/25 13:53:35;;;;;;;12.37;9.30;;;;;;;;;;6218098;28;20466;-68
2022/03/25 13:56:38;;;;;;;11.68;8.70;;;;;;;;;;6218208;28;20447;-68
2022/03/25 13:59:42;;;;;;;15.90;10.52;;;;;;;;;;6220208;28;20057;-73
2022/03/25 14:02:45;;;;;;;56.80;41.88;;;;;;;;;;6219442;28;20058;-70
2022/03/25 14:05:47;;;;;;;11.10;9.82;;;;;;;;;;6218894;28;20070;-69
2022/03/25 14:08:51;;;;;;;12.03;8.40;;;;;;;;;;6218493;28;20096;-70
2022/03/25 14:11:53;;;;;;;9.73;8.10;;;;;;;;;;6218166;28;20053;-70
2022/03/25 14:14:59;;;;;;;11.48;7.68;;;;;;;;;;6216049;28;20117;-70
2022/03/25 14:18:00;;;;;;;12.55;7.40;;;;;;;;;;6214901;28;20042;-69
2022/03/25 14:21:02;;;;;;;10.07;7.20;;;;;;;;;;6216169;28;20042;-68
2022/03/25 14:27:25;;;;;;;9.85;7.80;;;;;;;;;;6218673;28;20054;-69
2022/03/25 14:30:27;;;;;;;10.82;7.63;;;;;;;;;;6217975;28;20125;-69
2022/03/25 14:33:29;;;;;;;10.55;7.55;;;;;;;;;;6218374;28;20061;-68
2022/03/25 14:36:31;;;;;;;9.90;6.82;;;;;;;;;;6217454;28;20046;-68
2022/03/25 14:39:34;;;;;;;8.88;7.45;;;;;;;;;;6208186;28;20140;-68
2022/03/25 14:42:36;;;;;;;9.48;6.97;;;;;;;;;;6198585;28;20259;-69
2022/03/25 14:45:38;;;;;;;9.05;6.90;;;;;;;;;;6216170;28;20094;-68
2022/03/25 14:48:39;;;;;;;14.80;7.10;;;;;;;;;;6224567;28;20037;-68
2022/03/25 14:51:41;;;;;;;9.77;6.72;;;;;;;;;;6219313;28;20045;-67
2022/03/25 14:54:44;;;;;;;14.23;6.65;;;;;;;;;;6221097;28;20092;-68
2022/03/25 14:57:47;;;;;;;8.23;5.80;;;;;;;;;;6223769;28;20060;-69
2022/03/25 15:00:48;;;;;;;8.48;5.95;;;;;;;;;;6216632;28;20049;-68
2022/03/25 15:03:50;;;;;;;6.80;5.60;;;;;;;;;;6218390;28;20077;-68
2022/03/25 15:06:52;;;;;;;8.13;6.10;;;;;;;;;;6218027;28;20133;-70
2022/03/25 15:09:55;;;;;;;10.05;5.70;;;;;;;;;;6217592;28;20475;-68
2022/03/25 15:12:58;;;;;;;7.38;5.65;;;;;;;;;;6218749;28;20132;-68
2022/03/25 15:15:59;;;;;;;7.63;6.35;;;;;;;;;;6217866;28;20052;-69
2022/03/25 15:19:01;;;;;;;11.73;5.97;;;;;;;;;;6218917;28;20117;-69
2022/03/25 15:22:04;;;;;;;7.30;5.67;;;;;;;;;;6214403;28;20571;-68
2022/03/25 15:25:09;;;;;;;7.22;5.20;;;;;;;;;;6213806;28;20527;-69
2022/03/25 15:28:11;;;;;;;8.25;5.38;;;;;;;;;;6211544;28;20053;-68
2022/03/25 15:34:34;;;;;;;7.78;5.65;;;;;;;;;;6213801;28;20545;-69
2022/03/25 15:37:35;;;;;;;9.45;6.20;;;;;;;;;;6216781;28;20048;-69
2022/03/25 15:40:38;;;;;;;7.25;5.55;;;;;;;;;;6217143;28;20144;-67
2022/03/25 15:43:40;;;;;;;13.73;6.28;;;;;;;;;;6216300;28;20076;-68
2022/03/25 15:46:41;;;;;;;31.83;7.37;;;;;;;;;;6216606;28;20062;-68
2022/03/25 15:49:43;;;;;;;12.00;6.90;;;;;;;;;;6215492;28;20176;-68
2022/03/25 15:52:45;;;;;;;20.87;6.73;;;;;;;;;;6215870;28;20179;-68
2022/03/25 15:55:47;;;;;;;12.07;7.47;;;;;;;;;;6215978;28;20559;-68
2022/03/25 15:58:49;;;;;;;10.02;5.97;;;;;;;;;;6217203;28;20175;-66
2022/03/25 16:01:51;;;;;;;10.87;5.90;;;;;;;;;;6219392;28;20192;-70
2022/03/25 16:04:53;;;;;;;14.43;5.72;;;;;;;;;;6218265;28;20220;-68
2022/03/25 16:07:54;;;;;;;9.20;5.53;;;;;;;;;;6219520;28;20121;-68
2022/03/25 16:10:57;;;;;;;32.17;25.38;;;;;;;;;;6218713;28;20183;-69
2022/03/25 16:13:59;;;;;;;12.82;6.97;;;;;;;;;;6216331;28;20073;-69
2022/03/25 16:17:03;;;;;;;11.73;5.75;;;;;;;;;;6217266;28;20135;-71
2022/03/25 16:20:06;;;;;;;21.00;6.38;;;;;;;;;;6216859;28;20056;-68
2022/03/25 16:23:08;;;;;;;15.43;5.70;;;;;;;;;;6213615;28;20049;-68
2022/03/25 16:26:11;;;;;;;9.60;5.88;;;;;;;;;;6219424;28;20098;-69
2022/03/25 16:29:12;;;;;;;11.93;6.18;;;;;;;;;;6221077;28;20073;-68
2022/03/25 16:32:14;;;;;;;10.05;6.10;;;;;;;;;;6216393;28;20089;-69
2022/03/25 16:35:16;;;;;;;10.02;6.00;;;;;;;;;;6215754;28;20049;-68
2022/03/25 16:38:18;;;;;;;23.70;7.07;;;;;;;;;;6213629;28;20503;-68
2022/03/25 16:41:21;;;;;;;8.05;5.75;;;;;;;;;;6217278;28;20057;-68
2022/03/25 16:44:22;;;;;;;;;;;;;;;;;;6216816;28;20108;-68
2022/03/25 16:47:24;;;;;;;7.00;6.07;;;;;;;;;;6216660;28;20003;-69
2022/03/25 16:50:25;;;;;;;9.35;6.15;;;;;;;;;;6217531;28;20501;-68
2022/03/25 16:53:28;;;;;;;9.30;5.95;;;;;;;;;;6220602;28;20053;-68
2022/03/25 16:56:31;;;;;;;11.25;5.82;;;;;;;;;;6216079;28;20054;-68
2022/03/25 16:59:32;;;;;;;8.68;6.35;;;;;;;;;;6217639;28;20181;-68
2022/03/25 17:02:34;;;;;;;9.18;5.60;;;;;;;;;;6215206;28;20202;-69
2022/03/25 17:05:35;;;;;;;15.07;7.03;;;;;;;;;;6213915;28;20587;-69
2022/03/25 17:08:38;;;;;;;10.85;6.25;;;;;;;;;;6216658;28;20073;-69
2022/03/25 17:11:41;;;;;;;16.50;7.20;;;;;;;;;;6213614;28;20504;-69
2022/03/25 17:14:43;;;;;;;;;;;;;;;;;;6214374;28;20370;-69
2022/03/25 17:17:44;;;;;;;8.93;6.53;;;;;;;;;;6218227;28;20395;-70
2022/03/25 17:20:46;;;;;;;10.35;6.85;;;;;;;;;;6214498;28;20525;-70
2022/03/25 17:23:47;;;;;;;12.82;8.07;;;;;;;;;;6215613;28;20135;-69
2022/03/25 17:26:51;;;;;;;19.45;8.35;;;;;;;;;;6213340;28;20362;-69
2022/03/25 17:29:53;;;;;;;8.55;6.28;;;;;;;;;;6214344;28;20061;-70
2022/03/25 17:32:55;;;;;;;9.73;7.30;;;;;;;;;;6213540;28;20072;-68
2022/03/25 17:35:56;;;;;;;14.18;7.53;;;;;;;;;;6216251;28;20470;-68
2022/03/25 17:39:00;;;;;;;13.43;7.75;;;;;;;;;;6215395;28;20081;-68
2022/03/25 17:42:02;;;;;;;;;;;;;;;;;;6216431;28;20144;-68
2022/03/25 17:45:05;;;;;;;16.23;7.55;;;;;;;;;;6213839;28;20334;-68
2022/03/25 17:48:07;;;;;;;12.73;7.22;;;;;;;;;;6215459;28;20135;-69
2022/03/25 17:51:09;;;;;;;14.25;7.40;;;;;;;;;;6218061;28;20046;-68
2022/03/25 17:54:10;;;;;;;14.07;7.30;;;;;;;;;;6216862;28;20187;-69
2022/03/25 17:57:14;;;;;;;13.80;8.07;;;;;;;;;;6217711;28;20506;-69
2022/03/25 18:00:17;;;;;;;15.20;7.72;;;;;;;;;;6216284;28;20229;-69
2022/03/25 18:03:18;;;;;;;13.67;6.77;;;;;;;;;;6217759;28;20081;-69
2022/03/25 18:06:20;;;;;;;13.82;7.03;;;;;;;;;;6217443;28;20528;-69
2022/03/25 18:09:21;;;;;;;10.18;6.63;;;;;;;;;;6217320;28;20449;-69